Carrancas, Brazil
Current Conditions -  °F | °C
As of 6:00 PM on Wednesday 26 Nov 2014 (Local Time) from SBBQ Reporting Station
Broken Clouds Broken Clouds  
Wind Chill: 75°   Ceiling: 2000
Heat Index: 75°   Visibility: 6mi
Dew Point: 66°   Wind: 10mph
Humidity: 73%   Direction: 320°NW
Pressure: 29.97"   Gusts: NA
Location:  21.49°S, 44.64°W
Report Text: SBBQ 262000Z 32009KT 9999 BKN020 24/19 Q1015 RETS
Loading
Personal Weather Stations






























Interactive Weather Map New forecast layout! Learn more

10-Day Weather Forecast

Advertisements
Track Severe Weather on mobile